Time;durP1;ratioP1;P1;durP2;ratioP2;P2;SDS_P1;SDS_P2;PMS_P1;PMS_P2;Temp;Humidity;BMP_temperature;BMP_pressure;BME280_temperature;BME280_humidity;BME280_pressure;Samples;Min_cycle;Max_cycle;Signal;HPM_P1;HPM_P2
2021/05/30 00:00:06;;;;;;;32.90;23.65;;;13.50;99.90;;;;;;5011700;28;20695;-61
2021/05/30 00:02:31;;;;;;;32.38;23.17;;;13.50;99.90;;;;;;5011526;28;20025;-62
2021/05/30 00:04:57;;;;;;;34.22;23.02;;;13.40;99.90;;;;;;5026564;28;20079;-61
2021/05/30 00:07:23;;;;;;;31.02;21.83;;;13.40;99.90;;;;;;5011235;28;20033;-61
2021/05/30 00:09:51;;;;;;;40.33;24.30;;;13.40;99.90;;;;;;5011281;28;20034;-61
2021/05/30 00:12:17;;;;;;;36.97;25.25;;;13.30;99.90;;;;;;5026687;28;20418;-61
2021/05/30 00:14:42;;;;;;;35.20;25.90;;;13.30;99.90;;;;;;5011588;28;20030;-61
2021/05/30 00:17:08;;;;;;;37.85;25.27;;;13.20;99.90;;;;;;5011736;28;20033;-61
2021/05/30 00:19:34;;;;;;;35.90;24.95;;;13.20;99.90;;;;;;5011459;28;20611;-61
2021/05/30 00:22:00;;;;;;;36.63;25.15;;;13.20;99.90;;;;;;5011145;28;20097;-61
2021/05/30 00:24:26;;;;;;;41.53;25.92;;;13.20;99.90;;;;;;5026715;28;20022;-61
2021/05/30 00:26:51;;;;;;;36.83;25.92;;;13.20;99.90;;;;;;5026120;28;20084;-61
2021/05/30 00:29:17;;;;;;;37.60;24.75;;;13.10;99.90;;;;;;5011240;28;20316;-61
2021/05/30 00:31:42;;;;;;;36.17;24.17;;;13.10;99.90;;;;;;5012707;28;20018;-61
2021/05/30 00:34:08;;;;;;;41.75;25.52;;;13.10;99.90;;;;;;5015200;28;20529;-60
2021/05/30 00:36:34;;;;;;;35.65;24.92;;;13.10;99.90;;;;;;5013432;28;20113;-60
2021/05/30 00:38:59;;;;;;;33.42;24.58;;;13.10;99.90;;;;;;5030371;28;20041;-61
2021/05/30 00:41:26;;;;;;;35.15;24.52;;;13.10;99.90;;;;;;5015109;28;20426;-61
2021/05/30 00:43:54;;;;;;;37.55;25.77;;;13.00;99.90;;;;;;5015608;28;20072;-61
2021/05/30 00:46:21;;;;;;;36.80;25.25;;;13.00;99.90;;;;;;5030126;28;20034;-61
2021/05/30 00:48:48;;;;;;;35.00;25.27;;;12.90;99.90;;;;;;5030044;28;20030;-61
2021/05/30 00:51:14;;;;;;;39.60;25.60;;;12.90;99.90;;;;;;5030084;28;20085;-61
2021/05/30 00:53:42;;;;;;;34.13;25.58;;;12.90;99.90;;;;;;5014843;28;20496;-61
2021/05/30 00:56:12;;;;;;;38.10;26.17;;;12.80;99.90;;;;;;5014711;28;20533;-61
2021/05/30 00:58:39;;;;;;;36.97;25.35;;;12.80;99.90;;;;;;5014665;28;20026;-62
2021/05/30 01:01:05;;;;;;;37.78;27.00;;;12.80;99.90;;;;;;5029807;28;20036;-61
2021/05/30 01:03:37;;;;;;;35.78;25.70;;;12.80;99.90;;;;;;5014646;28;20103;-61
2021/05/30 01:06:04;;;;;;;41.92;25.73;;;12.80;99.90;;;;;;5014587;28;20053;-61
2021/05/30 01:08:29;;;;;;;38.10;25.48;;;12.80;99.90;;;;;;5014758;28;20022;-61
2021/05/30 01:11:00;;;;;;;36.00;25.10;;;12.80;99.90;;;;;;5014470;28;20144;-61
2021/05/30 01:13:27;;;;;;;36.85;26.52;;;12.70;99.90;;;;;;5014555;28;20014;-61
2021/05/30 01:15:53;;;;;;;37.33;25.40;;;12.70;99.90;;;;;;5014415;28;20021;-61
2021/05/30 01:18:24;;;;;;;37.83;26.52;;;12.70;99.90;;;;;;5014423;28;20034;-61
2021/05/30 01:20:52;;;;;;;37.85;27.48;;;12.70;99.90;;;;;;5014390;28;20057;-61
2021/05/30 01:23:19;;;;;;;37.05;26.33;;;12.60;99.90;;;;;;5014271;28;20249;-61
2021/05/30 01:25:46;;;;;;;41.00;27.55;;;12.60;99.90;;;;;;5014227;28;20410;-61
2021/05/30 01:28:12;;;;;;;36.50;26.35;;;12.50;99.90;;;;;;5014385;28;20032;-61
2021/05/30 01:30:38;;;;;;;38.35;26.38;;;12.50;99.90;;;;;;5014165;28;20611;-61
2021/05/30 01:33:04;;;;;;;39.83;25.70;;;12.40;99.90;;;;;;5029172;28;20031;-61
2021/05/30 01:35:30;;;;;;;41.13;26.65;;;12.40;99.90;;;;;;5028906;28;20025;-61
2021/05/30 01:37:56;;;;;;;36.05;26.23;;;12.40;99.90;;;;;;5014362;28;20278;-61
2021/05/30 01:40:23;;;;;;;42.20;28.42;;;12.40;99.90;;;;;;5013943;28;20026;-61
2021/05/30 01:42:52;;;;;;;38.83;27.75;;;12.30;99.90;;;;;;5013740;28;20038;-61
2021/05/30 01:45:19;;;;;;;43.13;28.80;;;12.30;99.90;;;;;;5014027;28;20382;-61
2021/05/30 01:47:45;;;;;;;43.05;28.80;;;12.30;99.90;;;;;;5013631;28;20033;-61
2021/05/30 01:50:18;;;;;;;41.03;28.42;;;12.20;99.90;;;;;;5013707;28;20087;-62
2021/05/30 01:52:44;;;;;;;42.45;28.90;;;12.20;99.90;;;;;;5013928;28;20022;-61
2021/05/30 01:55:18;;;;;;;41.83;29.27;;;12.10;99.90;;;;;;5013659;28;20026;-61
2021/05/30 01:57:46;;;;;;;40.20;27.83;;;12.10;99.90;;;;;;5013582;28;20378;-61
2021/05/30 02:00:14;;;;;;;50.63;29.48;;;12.10;99.90;;;;;;5013351;28;20025;-61
2021/05/30 02:02:41;;;;;;;40.80;29.55;;;12.10;99.90;;;;;;5013642;28;20033;-61
2021/05/30 02:05:07;;;;;;;44.03;28.60;;;12.10;99.90;;;;;;5012411;28;20022;-60
2021/05/30 02:07:33;;;;;;;43.35;28.75;;;12.00;99.90;;;;;;5013180;28;20030;-60
2021/05/30 02:10:01;;;;;;;41.88;28.50;;;12.00;99.90;;;;;;5028538;28;20134;-61
2021/05/30 02:12:28;;;;;;;42.63;28.48;;;12.00;99.90;;;;;;5013191;28;20029;-60
2021/05/30 02:14:57;;;;;;;39.42;28.75;;;11.90;99.90;;;;;;5013377;28;20014;-60
2021/05/30 02:17:24;;;;;;;42.38;29.02;;;12.00;99.90;;;;;;5013342;28;20133;-60
2021/05/30 02:19:50;;;;;;;42.67;28.63;;;12.00;99.90;;;;;;5013127;28;20022;-60
2021/05/30 02:22:16;;;;;;;41.58;28.60;;;12.00;99.90;;;;;;5013329;28;20374;-60
2021/05/30 02:24:44;;;;;;;44.90;29.88;;;12.00;99.90;;;;;;5012083;28;20132;-60
2021/05/30 02:27:13;;;;;;;42.53;28.70;;;12.00;99.90;;;;;;5013241;28;20033;-60
2021/05/30 02:29:41;;;;;;;40.47;27.65;;;11.90;99.90;;;;;;5013068;28;20033;-60
2021/05/30 02:32:12;;;;;;;41.42;28.27;;;11.90;99.90;;;;;;5012956;28;20029;-60
2021/05/30 02:34:40;;;;;;;42.47;29.13;;;11.90;99.90;;;;;;5011801;28;20018;-60
2021/05/30 02:37:07;;;;;;;43.40;29.77;;;11.80;99.90;;;;;;5027642;28;20126;-60
2021/05/30 02:39:32;;;;;;;42.55;28.80;;;11.80;99.90;;;;;;5028112;28;20591;-60
2021/05/30 02:41:58;;;;;;;42.33;28.88;;;11.80;99.90;;;;;;5027897;28;20116;-61
2021/05/30 02:44:24;;;;;;;45.85;28.65;;;11.80;99.90;;;;;;5011328;28;20060;-61
2021/05/30 02:46:50;;;;;;;39.45;27.40;;;11.80;99.90;;;;;;5012706;28;20029;-61
2021/05/30 02:49:17;;;;;;;42.28;28.27;;;11.80;99.90;;;;;;5012759;28;20451;-61
2021/05/30 02:51:43;;;;;;;41.00;28.20;;;11.80;99.90;;;;;;5012619;28;20569;-61
2021/05/30 02:54:09;;;;;;;44.92;28.45;;;11.80;99.90;;;;;;5011889;28;20022;-61
2021/05/30 02:56:35;;;;;;;37.33;26.02;;;11.80;99.90;;;;;;5012647;28;20550;-61
2021/05/30 02:59:00;;;;;;;39.60;27.52;;;11.80;99.90;;;;;;5012476;28;20101;-61
2021/05/30 03:01:26;;;;;;;39.88;26.42;;;11.70;99.90;;;;;;5012546;28;20026;-61
2021/05/30 03:03:52;;;;;;;35.50;25.45;;;11.70;99.90;;;;;;5012888;28;20463;-61
2021/05/30 03:06:19;;;;;;;39.35;26.38;;;11.70;99.90;;;;;;5027293;28;20079;-61
2021/05/30 03:08:45;;;;;;;38.53;26.35;;;11.60;99.90;;;;;;5012546;28;20383;-61
2021/05/30 03:11:11;;;;;;;37.35;25.02;;;11.60;99.90;;;;;;5011990;28;20025;-61
2021/05/30 03:13:37;;;;;;;39.72;26.75;;;11.60;99.90;;;;;;5012020;28;20552;-61
2021/05/30 03:16:02;;;;;;;37.45;25.25;;;11.60;99.90;;;;;;5011092;28;20141;-61
2021/05/30 03:18:28;;;;;;;36.03;25.58;;;11.60;99.90;;;;;;5012199;28;20030;-61
2021/05/30 03:20:53;;;;;;;35.80;25.50;;;11.60;99.90;;;;;;5012115;28;20480;-61
2021/05/30 03:23:19;;;;;;;36.83;25.73;;;11.60;99.90;;;;;;5010937;28;20036;-61
2021/05/30 03:25:45;;;;;;;36.83;26.02;;;11.60;99.90;;;;;;5012172;28;20029;-61
2021/05/30 03:28:11;;;;;;;40.10;25.63;;;11.60;99.90;;;;;;5012125;28;20025;-61
2021/05/30 03:30:37;;;;;;;38.78;25.65;;;11.60;99.90;;;;;;5011995;28;20026;-61
2021/05/30 03:33:03;;;;;;;36.95;25.67;;;11.60;99.90;;;;;;5011892;28;20026;-61
2021/05/30 03:35:29;;;;;;;38.75;25.48;;;11.50;99.90;;;;;;5011777;28;20109;-61
2021/05/30 03:37:56;;;;;;;41.85;27.85;;;11.50;99.90;;;;;;5011896;28;20457;-61
2021/05/30 03:42:50;;;;;;;36.30;25.25;;;11.50;99.90;;;;;;5012147;28;20054;-61
2021/05/30 03:45:16;;;;;;;39.53;26.85;;;11.40;99.90;;;;;;5011983;28;20022;-61
2021/05/30 03:47:42;;;;;;;38.20;26.23;;;11.40;99.90;;;;;;5011796;28;20029;-61
2021/05/30 03:50:08;;;;;;;36.13;25.63;;;11.50;99.90;;;;;;5011689;28;20030;-61
2021/05/30 03:52:34;;;;;;;35.08;25.35;;;11.50;99.90;;;;;;5011462;28;20453;-61
2021/05/30 03:54:59;;;;;;;38.88;24.67;;;11.40;99.90;;;;;;5011795;28;20022;-61
2021/05/30 03:57:25;;;;;;;38.35;25.40;;;11.40;99.90;;;;;;5011629;28;20041;-61
2021/05/30 03:59:50;;;;;;;34.17;24.42;;;11.40;99.90;;;;;;5011398;28;20060;-61
2021/05/30 04:02:16;;;;;;;36.92;25.20;;;11.50;99.90;;;;;;5011663;28;20041;-61
2021/05/30 04:04:42;;;;;;;36.28;25.17;;;11.50;99.90;;;;;;5011498;28;20167;-61
2021/05/30 04:07:07;;;;;;;39.30;25.02;;;11.60;99.90;;;;;;5011321;28;20034;-61
2021/05/30 04:09:33;;;;;;;38.10;25.63;;;11.60;99.90;;;;;;5011396;28;20390;-61
2021/05/30 04:11:59;;;;;;;34.00;24.00;;;11.50;99.90;;;;;;5011255;28;20069;-61
2021/05/30 04:14:25;;;;;;;37.13;24.80;;;11.50;99.90;;;;;;5011436;28;20022;-61
2021/05/30 04:16:51;;;;;;;36.50;24.73;;;11.50;99.90;;;;;;5011262;28;20021;-61
2021/05/30 04:19:16;;;;;;;36.60;22.85;;;11.50;99.90;;;;;;5011183;28;20036;-61
2021/05/30 04:21:42;;;;;;;32.58;23.42;;;11.50;99.90;;;;;;5011218;28;20029;-61
2021/05/30 04:24:08;;;;;;;32.38;23.83;;;11.50;99.90;;;;;;5010016;28;20026;-61
2021/05/30 04:26:34;;;;;;;31.65;22.90;;;11.60;99.90;;;;;;5011321;28;20037;-61
2021/05/30 04:28:59;;;;;;;32.50;23.08;;;11.60;99.90;;;;;;5011249;28;20061;-61
2021/05/30 04:31:26;;;;;;;30.33;22.23;;;11.60;99.90;;;;;;5011099;28;20066;-61
2021/05/30 04:33:51;;;;;;;30.80;21.92;;;11.60;99.90;;;;;;5026380;28;20065;-61
2021/05/30 04:36:20;;;;;;;31.20;22.83;;;11.60;99.90;;;;;;5011028;28;20403;-61
2021/05/30 04:38:45;;;;;;;29.85;22.45;;;11.70;99.90;;;;;;5026136;28;20034;-61
2021/05/30 04:41:11;;;;;;;29.75;22.80;;;11.60;99.90;;;;;;5011073;28;20053;-61
2021/05/30 04:43:37;;;;;;;29.63;22.02;;;11.70;99.90;;;;;;5010816;28;20032;-61
2021/05/30 04:46:02;;;;;;;29.63;22.55;;;11.70;99.90;;;;;;5011024;28;20045;-61
2021/05/30 04:48:28;;;;;;;29.02;21.67;;;11.80;99.90;;;;;;5011097;28;20720;-61
2021/05/30 04:51:06;;;;;;;31.48;22.80;;;11.80;99.90;;;;;;5026160;28;20378;-61
2021/05/30 04:53:37;;;;;;;32.78;23.58;;;11.80;99.90;;;;;;5026278;28;20025;-61
2021/05/30 04:56:04;;;;;;;34.65;23.98;;;11.80;99.90;;;;;;5011067;28;20022;-63
2021/05/30 04:58:30;;;;;;;33.15;24.23;;;11.90;99.90;;;;;;5010954;28;20538;-61
2021/05/30 05:00:56;;;;;;;28.00;22.08;;;12.00;99.90;;;;;;5010865;28;20383;-61
2021/05/30 05:03:22;;;;;;;30.70;22.45;;;12.00;99.90;;;;;;5011113;28;20036;-62
2021/05/30 05:05:51;;;;;;;30.13;22.42;;;12.00;99.90;;;;;;5010806;28;20037;-61
2021/05/30 05:08:17;;;;;;;30.77;23.40;;;12.00;99.90;;;;;;5026005;28;20034;-62
2021/05/30 05:10:42;;;;;;;29.35;22.95;;;12.10;99.90;;;;;;5010979;28;20633;-61
2021/05/30 05:13:08;;;;;;;30.73;23.95;;;12.10;99.90;;;;;;5011088;28;20117;-62
2021/05/30 05:15:33;;;;;;;31.23;23.65;;;12.20;99.90;;;;;;5010847;28;20107;-61
2021/05/30 05:18:13;;;;;;;35.47;24.55;;;12.30;99.90;;;;;;5012594;28;20018;-62
2021/05/30 05:20:39;;;;;;;32.33;24.42;;;12.40;99.90;;;;;;5014613;28;20034;-63
2021/05/30 05:23:05;;;;;;;33.13;25.83;;;12.40;99.90;;;;;;5014693;28;20105;-61
2021/05/30 05:25:32;;;;;;;37.03;27.75;;;12.50;99.90;;;;;;5014393;28;20437;-62
2021/05/30 05:27:58;;;;;;;41.30;29.13;;;12.90;99.90;;;;;;5014436;28;20045;-61
2021/05/30 05:30:25;;;;;;;39.60;28.38;;;12.90;99.90;;;;;;5029427;28;20131;-61
2021/05/30 05:32:51;;;;;;;38.45;28.40;;;12.80;99.90;;;;;;5014065;28;20108;-61
2021/05/30 05:35:17;;;;;;;39.92;30.40;;;12.70;99.90;;;;;;5029366;28;20117;-67
2021/05/30 05:37:42;;;;;;;40.85;29.20;;;12.70;99.90;;;;;;5014185;28;20038;-60
2021/05/30 05:40:11;;;;;;;38.60;28.95;;;12.70;99.90;;;;;;5014309;28;20471;-61
2021/05/30 05:42:37;;;;;;;40.40;28.10;;;12.60;99.90;;;;;;5014168;28;20101;-62
2021/05/30 05:45:04;;;;;;;43.70;29.88;;;12.70;99.90;;;;;;5014288;28;20036;-61
2021/05/30 05:47:30;;;;;;;46.05;31.20;;;12.90;99.90;;;;;;5014171;28;20069;-63
2021/05/30 05:49:57;;;;;;;43.30;31.10;;;13.00;99.90;;;;;;5029006;28;20069;-61
2021/05/30 05:52:22;;;;;;;44.70;30.05;;;12.90;99.90;;;;;;5014023;28;20033;-61
2021/05/30 05:54:51;;;;;;;38.70;27.95;;;12.90;99.90;;;;;;5014254;28;20025;-61
2021/05/30 05:57:18;;;;;;;39.55;28.98;;;12.90;99.90;;;;;;5013996;28;20437;-62
2021/05/30 05:59:43;;;;;;;38.08;28.10;;;13.10;99.90;;;;;;5013921;28;20386;-62
2021/05/30 06:02:09;;;;;;;40.90;30.35;;;13.10;99.90;;;;;;5013719;28;20029;-61
2021/05/30 06:04:35;;;;;;;43.53;32.90;;;13.30;99.90;;;;;;5013677;28;20029;-61
2021/05/30 06:07:00;;;;;;;41.03;30.65;;;13.30;99.90;;;;;;5013482;28;20398;-61
2021/05/30 06:09:26;;;;;;;37.40;29.50;;;13.30;99.90;;;;;;5013526;28;20315;-61
2021/05/30 06:11:52;;;;;;;43.53;31.83;;;13.40;99.90;;;;;;5013840;28;20018;-62
2021/05/30 06:14:18;;;;;;;43.95;30.65;;;13.40;99.90;;;;;;5013533;28;20483;-61
2021/05/30 06:16:43;;;;;;;43.80;31.10;;;13.40;99.90;;;;;;5013396;28;20417;-61
2021/05/30 06:19:09;;;;;;;40.88;30.55;;;13.60;99.90;;;;;;5013449;28;20030;-61
2021/05/30 06:21:35;;;;;;;35.55;28.25;;;13.70;99.90;;;;;;5013138;28;20117;-61
2021/05/30 06:24:01;;;;;;;34.75;26.33;;;13.70;99.90;;;;;;5013657;28;20104;-61
2021/05/30 06:26:27;;;;;;;36.22;27.88;;;13.40;99.90;;;;;;5011723;28;20022;-61
2021/05/30 06:28:53;;;;;;;37.40;28.10;;;13.70;99.90;;;;;;5012164;28;20037;-61
2021/05/30 06:31:18;;;;;;;35.90;27.05;;;13.90;99.90;;;;;;5012877;28;20045;-61
2021/05/30 06:33:44;;;;;;;37.95;28.10;;;14.20;99.90;;;;;;5012856;28;20026;-61
2021/05/30 06:36:10;;;;;;;34.38;27.08;;;14.50;99.90;;;;;;5013027;28;20109;-62
2021/05/30 06:38:35;;;;;;;35.70;27.33;;;14.50;99.90;;;;;;5012789;28;20080;-62
2021/05/30 06:41:01;;;;;;;33.45;26.58;;;14.40;99.90;;;;;;5012863;28;20026;-62
2021/05/30 06:43:26;;;;;;;33.90;26.13;;;14.60;99.90;;;;;;5012800;28;20061;-61
2021/05/30 06:45:52;;;;;;;30.70;24.55;;;15.40;99.90;;;;;;5012519;28;20111;-61
2021/05/30 06:48:20;;;;;;;28.67;24.73;;;16.70;99.90;;;;;;5012680;28;20100;-61
2021/05/30 06:51:12;;;;;;;28.67;24.75;;;17.70;99.90;;;;;;5027758;28;20386;-62
2021/05/30 06:53:32;;;;;;;30.38;26.10;;;18.40;99.90;;;;;;5012682;28;20111;-62
2021/05/30 06:55:58;;;;;;;29.40;25.90;;;19.00;99.90;;;;;;5012466;28;20067;-62
2021/05/30 06:58:24;;;;;;;32.55;25.90;;;19.20;99.90;;;;;;5027391;28;20026;-62
2021/05/30 07:00:50;;;;;;;29.40;24.88;;;19.60;99.90;;;;;;5012231;28;20049;-62
2021/05/30 07:03:16;;;;;;;27.13;24.23;;;20.00;99.90;;;;;;5012425;28;20057;-62
2021/05/30 07:05:42;;;;;;;27.50;23.48;;;20.60;99.90;;;;;;5012096;28;20100;-62
2021/05/30 07:08:07;;;;;;;27.92;24.92;;;20.60;99.90;;;;;;5012553;28;20026;-62
2021/05/30 07:10:33;;;;;;;26.23;23.00;;;21.20;99.30;;;;;;5012523;28;20022;-62
2021/05/30 07:12:59;;;;;;;26.60;23.17;;;20.60;99.90;;;;;;5012145;28;20109;-62
2021/05/30 07:15:25;;;;;;;26.92;22.95;;;20.80;99.90;;;;;;5012304;28;20026;-60
2021/05/30 07:17:50;;;;;;;33.22;22.52;;;20.70;99.90;;;;;;5012133;28;20097;-62
2021/05/30 07:20:16;;;;;;;25.25;22.65;;;20.50;99.90;;;;;;5012108;28;20107;-60
2021/05/30 07:22:42;;;;;;;25.50;22.65;;;20.60;99.90;;;;;;5027243;28;20034;-62
2021/05/30 07:25:08;;;;;;;24.70;22.02;;;21.10;99.90;;;;;;5012163;28;20034;-62
2021/05/30 07:27:34;;;;;;;24.45;21.92;;;21.90;97.50;;;;;;5012040;28;20084;-62
2021/05/30 07:29:59;;;;;;;24.33;21.83;;;22.50;94.50;;;;;;5010939;28;20026;-62
2021/05/30 07:32:25;;;;;;;25.60;22.85;;;22.80;93.50;;;;;;5012003;28;20026;-62
2021/05/30 07:34:51;;;;;;;24.50;21.30;;;22.70;92.00;;;;;;5011945;28;20032;-61
2021/05/30 07:37:16;;;;;;;22.77;20.38;;;23.10;90.50;;;;;;5011355;28;20042;-62
2021/05/30 07:39:42;;;;;;;23.63;21.25;;;23.10;87.70;;;;;;5012104;28;20505;-62
2021/05/30 07:42:09;;;;;;;24.20;21.67;;;23.10;89.00;;;;;;5011683;28;20029;-62
2021/05/30 07:44:35;;;;;;;24.17;21.30;;;22.60;90.00;;;;;;5011827;28;20029;-62
2021/05/30 07:47:00;;;;;;;23.92;21.33;;;22.20;91.30;;;;;;5012038;28;20408;-62
2021/05/30 07:49:26;;;;;;;26.35;23.00;;;22.90;89.70;;;;;;5026772;28;20076;-61
2021/05/30 07:51:52;;;;;;;28.02;22.33;;;23.00;87.20;;;;;;5026691;28;20083;-61
2021/05/30 07:54:18;;;;;;;25.00;22.40;;;23.30;86.30;;;;;;5011858;28;20022;-62
2021/05/30 07:56:44;;;;;;;23.70;21.13;;;23.70;83.50;;;;;;5011714;28;20022;-62
2021/05/30 07:59:10;;;;;;;23.35;20.85;;;24.10;82.40;;;;;;5011579;28;20041;-62
2021/05/30 08:01:36;;;;;;;23.33;20.50;;;24.50;78.60;;;;;;5011652;28;20463;-63
2021/05/30 08:04:02;;;;;;;22.10;19.77;;;24.20;76.50;;;;;;5011796;28;20033;-63
2021/05/30 08:06:32;;;;;;;23.40;20.90;;;24.00;77.20;;;;;;5009938;28;20061;-62
2021/05/30 08:08:58;;;;;;;23.38;20.95;;;24.20;75.10;;;;;;5010471;28;20041;-62
2021/05/30 08:11:26;;;;;;;23.58;21.30;;;23.80;78.00;;;;;;5000189;28;20383;-62
2021/05/30 08:13:52;;;;;;;25.45;21.65;;;22.90;82.00;;;;;;4995856;28;20054;-62
2021/05/30 08:16:19;;;;;;;23.55;21.05;;;23.30;83.10;;;;;;5005860;28;20386;-62
2021/05/30 08:18:45;;;;;;;23.27;20.85;;;23.80;81.80;;;;;;5010120;28;20021;-62
2021/05/30 08:21:11;;;;;;;28.30;22.13;;;24.40;74.20;;;;;;5020079;28;20502;-62
2021/05/30 08:23:38;;;;;;;22.90;20.38;;;24.80;73.80;;;;;;5009518;28;20026;-62
2021/05/30 08:26:04;;;;;;;21.85;19.58;;;24.30;74.20;;;;;;5009408;28;20034;-62
2021/05/30 08:28:30;;;;;;;22.92;19.00;;;23.50;76.90;;;;;;5009261;28;20504;-62
2021/05/30 08:30:55;;;;;;;22.05;19.67;;;24.00;74.00;;;;;;5011195;28;20037;-62
2021/05/30 08:33:21;;;;;;;22.52;20.13;;;24.00;77.20;;;;;;5011205;28;20030;-62
2021/05/30 08:35:46;;;;;;;22.13;19.88;;;24.80;73.80;;;;;;5010290;28;20057;-62
2021/05/30 08:38:12;;;;;;;21.60;19.42;;;25.20;71.70;;;;;;5010179;28;20045;-60
2021/05/30 08:40:38;;;;;;;22.73;20.17;;;25.40;67.70;;;;;;5010845;28;20034;-62
2021/05/30 08:43:04;;;;;;;19.92;17.90;;;24.40;68.90;;;;;;5010864;28;20053;-62
2021/05/30 08:45:29;;;;;;;23.88;19.98;;;24.50;70.50;;;;;;5010499;28;20121;-63
2021/05/30 08:47:55;;;;;;;21.60;19.40;;;24.90;71.00;;;;;;5010782;28;20425;-60
2021/05/30 08:50:21;;;;;;;21.33;18.65;;;25.10;68.20;;;;;;5010774;28;20040;-61
2021/05/30 08:52:46;;;;;;;21.17;18.02;;;25.30;67.60;;;;;;5011243;28;20049;-62
2021/05/30 08:55:12;;;;;;;20.15;18.08;;;25.30;67.60;;;;;;5014894;28;20497;-61
2021/05/30 08:57:39;;;;;;;20.83;18.55;;;25.20;66.60;;;;;;5014218;28;20467;-62
2021/05/30 09:00:07;;;;;;;20.80;17.40;;;26.10;67.10;;;;;;5014042;28;20076;-62
2021/05/30 09:02:33;;;;;;;20.92;17.92;;;26.80;60.80;;;;;;5013594;28;20026;-62
2021/05/30 09:05:05;;;;;;;17.85;16.02;;;26.50;61.40;;;;;;5014718;28;20156;-62
2021/05/30 09:07:44;;;;;;;18.08;16.27;;;26.30;60.20;;;;;;5013659;28;20037;-62
2021/05/30 09:10:12;;;;;;;19.20;17.30;;;26.30;59.50;;;;;;5013829;28;20037;-62
2021/05/30 09:12:39;;;;;;;18.33;16.52;;;27.00;58.70;;;;;;5014719;28;20176;-62
2021/05/30 09:15:14;;;;;;;21.13;16.05;;;26.40;60.30;;;;;;5014273;28;20083;-62
2021/05/30 09:17:39;;;;;;;17.13;15.43;;;26.50;60.80;;;;;;5014253;28;20083;-63
2021/05/30 09:20:07;;;;;;;16.08;14.48;;;26.40;58.90;;;;;;5014034;28;20101;-63
2021/05/30 09:22:37;;;;;;;17.48;15.38;;;26.70;58.90;;;;;;5012609;28;20886;-62
2021/05/30 09:25:06;;;;;;;19.65;17.20;;;27.20;56.50;;;;;;5028852;28;20100;-62
2021/05/30 09:27:34;;;;;;;18.90;16.77;;;27.20;54.90;;;;;;5012424;28;20073;-62
2021/05/30 09:30:20;;;;;;;18.38;16.48;;;26.60;57.20;;;;;;5012438;28;20064;-62
2021/05/30 09:33:08;;;;;;;17.00;15.20;;;26.60;55.70;;;;;;5013843;28;20538;-63
2021/05/30 09:35:36;;;;;;;17.88;16.08;;;26.40;57.20;;;;;;5013473;28;20030;-62
2021/05/30 09:38:09;;;;;;;18.95;16.98;;;26.90;55.20;;;;;;5013745;28;20444;-62
2021/05/30 09:40:39;;;;;;;16.58;14.88;;;26.40;56.80;;;;;;5013229;28;20442;-62
2021/05/30 09:43:13;;;;;;;16.15;14.02;;;26.40;56.50;;;;;;5012269;28;20026;-62
2021/05/30 09:45:40;;;;;;;17.02;13.93;;;26.80;55.40;;;;;;5028471;28;20461;-62
2021/05/30 09:48:20;;;;;;;16.23;14.52;;;27.50;55.30;;;;;;5013270;28;20035;-62
2021/05/30 09:51:02;;;;;;;14.43;12.93;;;27.80;54.30;;;;;;5011953;28;20057;-62
2021/05/30 09:53:29;;;;;;;13.98;12.23;;;27.10;53.50;;;;;;5013395;28;20034;-62
2021/05/30 09:55:55;;;;;;;15.13;12.02;;;26.90;54.10;;;;;;5012076;28;20029;-62
2021/05/30 09:58:23;;;;;;;17.33;13.18;;;27.50;51.80;;;;;;5026978;28;20036;-62
2021/05/30 10:00:51;;;;;;;11.15;10.05;;;26.90;52.60;;;;;;5011658;28;20033;-62
2021/05/30 10:03:18;;;;;;;12.07;9.90;;;26.90;51.80;;;;;;5011240;28;20382;-62
2021/05/30 10:05:45;;;;;;;11.43;9.82;;;26.50;51.60;;;;;;5011068;28;20022;-62
2021/05/30 10:08:17;;;;;;;11.85;10.02;;;27.20;51.40;;;;;;5026761;28;20116;-62
2021/05/30 10:10:45;;;;;;;16.88;11.27;;;26.70;50.80;;;;;;5012436;28;20034;-62
2021/05/30 10:13:11;;;;;;;11.48;8.70;;;26.90;52.30;;;;;;5012998;28;20025;-63
2021/05/30 10:15:38;;;;;;;10.60;9.50;;;27.00;50.60;;;;;;5012837;28;20026;-63
2021/05/30 10:18:19;;;;;;;9.70;8.77;;;26.80;48.90;;;;;;5012522;28;20017;-62
2021/05/30 10:20:46;;;;;;;9.82;8.82;;;27.60;49.90;;;;;;5011329;28;20163;-62
2021/05/30 10:23:17;;;;;;;12.00;9.90;;;27.40;47.00;;;;;;5012490;28;20471;-62
2021/05/30 10:25:43;;;;;;;12.18;10.13;;;26.80;48.80;;;;;;5012749;28;20034;-62
2021/05/30 10:28:20;;;;;;;14.07;9.98;;;25.90;51.40;;;;;;5027716;28;20045;-62
2021/05/30 10:30:50;;;;;;;10.40;8.32;;;26.30;50.40;;;;;;5011411;28;20037;-62
2021/05/30 10:33:23;;;;;;;8.52;7.63;;;26.30;49.50;;;;;;5011160;28;20041;-62
2021/05/30 10:35:50;;;;;;;9.68;7.43;;;26.70;47.80;;;;;;5011570;28;20018;-62
2021/05/30 10:38:39;;;;;;;10.43;7.75;;;27.00;46.80;;;;;;5011928;28;20073;-62
2021/05/30 10:41:23;;;;;;;8.00;7.20;;;26.70;47.40;;;;;;5012390;28;20482;-62
2021/05/30 10:43:50;;;;;;;7.75;6.95;;;26.20;47.00;;;;;;5012000;28;20022;-62
2021/05/30 10:46:18;;;;;;;7.50;6.32;;;27.20;46.40;;;;;;5008066;28;20056;-62
2021/05/30 10:49:04;;;;;;;7.90;6.82;;;27.30;45.30;;;;;;5006092;28;20058;-62
2021/05/30 10:51:42;;;;;;;9.35;7.65;;;27.50;44.50;;;;;;5003410;28;20099;-63
2021/05/30 10:54:11;;;;;;;10.48;9.30;;;27.10;45.80;;;;;;5026932;28;20049;-62
2021/05/30 10:56:55;;;;;;;10.00;9.00;;;26.30;48.20;;;;;;5010372;28;20498;-60
2021/05/30 10:59:23;;;;;;;11.18;9.80;;;26.10;49.20;;;;;;5012687;28;20022;-63
2021/05/30 11:01:51;;;;;;;7.47;6.78;;;26.70;48.80;;;;;;5012518;28;20092;-63
2021/05/30 11:04:26;;;;;;;7.90;7.05;;;27.00;46.00;;;;;;5012702;28;20444;-61
2021/05/30 11:07:05;;;;;;;8.43;6.60;;;27.50;44.80;;;;;;5010323;28;20032;-61
2021/05/30 11:09:49;;;;;;;7.75;6.30;;;27.80;45.20;;;;;;5012004;28;20145;-61
2021/05/30 11:12:20;;;;;;;11.07;7.72;;;28.10;44.20;;;;;;5012115;28;20030;-62
2021/05/30 11:15:08;;;;;;;8.88;7.53;;;28.30;43.80;;;;;;5011937;28;20018;-62
2021/05/30 11:18:06;;;;;;;7.88;7.07;;;27.50;44.40;;;;;;5011970;28;20497;-62
2021/05/30 11:20:44;;;;;;;10.20;5.97;;;27.60;45.20;;;;;;4989270;28;20030;-62
2021/05/30 11:23:13;;;;;;;7.25;6.53;;;28.20;44.20;;;;;;5011955;28;20030;-62
2021/05/30 11:25:43;;;;;;;7.28;6.18;;;28.70;43.00;;;;;;5027019;28;20050;-62
2021/05/30 11:28:11;;;;;;;6.50;5.78;;;28.70;43.20;;;;;;5011827;28;20025;-62
2021/05/30 11:30:45;;;;;;;6.57;5.78;;;29.00;42.30;;;;;;5026818;28;20146;-62
2021/05/30 11:33:14;;;;;;;6.68;5.85;;;29.30;42.00;;;;;;5010758;28;20395;-62
2021/05/30 11:35:40;;;;;;;6.97;6.32;;;29.40;42.10;;;;;;5011500;28;20034;-62
2021/05/30 11:38:06;;;;;;;6.32;5.75;;;29.30;40.90;;;;;;5011721;28;20042;-62
2021/05/30 11:40:34;;;;;;;6.95;6.30;;;29.90;40.80;;;;;;5011573;28;20022;-62
2021/05/30 11:43:19;;;;;;;9.13;6.53;;;30.50;39.30;;;;;;5011655;28;20153;-62
2021/05/30 11:45:48;;;;;;;7.50;6.85;;;30.40;39.70;;;;;;5011787;28;20033;-61
2021/05/30 11:48:13;;;;;;;8.88;6.55;;;28.60;41.90;;;;;;5011743;28;20433;-61
2021/05/30 11:50:51;;;;;;;8.20;6.07;;;28.00;43.10;;;;;;5011458;28;20033;-61
2021/05/30 11:53:30;;;;;;;7.60;6.90;;;28.40;43.00;;;;;;5012069;28;20041;-61
2021/05/30 11:55:57;;;;;;;9.88;6.97;;;28.80;41.50;;;;;;5009279;28;20022;-61
2021/05/30 11:58:23;;;;;;;7.93;7.20;;;28.60;42.30;;;;;;5007366;28;20033;-63
2021/05/30 12:00:58;;;;;;;12.63;7.47;;;28.10;43.20;;;;;;5011453;28;20036;-62
2021/05/30 12:03:24;;;;;;;8.07;7.28;;;26.70;45.70;;;;;;5010793;28;20382;-62
2021/05/30 12:06:01;;;;;;;8.05;7.13;;;27.00;45.40;;;;;;5011122;28;20105;-62
2021/05/30 12:08:27;;;;;;;7.22;6.53;;;27.70;43.80;;;;;;5011010;28;20112;-62
2021/05/30 12:10:56;;;;;;;8.27;6.25;;;27.30;44.50;;;;;;5011762;28;20034;-62
2021/05/30 12:13:48;;;;;;;8.13;6.68;;;27.60;44.80;;;;;;5011184;28;20026;-62
2021/05/30 12:16:19;;;;;;;7.32;5.72;;;27.60;44.10;;;;;;5008372;28;20030;-62
2021/05/30 12:18:54;;;;;;;5.85;5.30;;;27.50;43.90;;;;;;5010653;28;20108;-62
2021/05/30 12:21:25;;;;;;;5.60;5.10;;;27.90;43.20;;;;;;5011309;28;20044;-62
2021/05/30 12:23:51;;;;;;;7.95;4.40;;;28.20;42.20;;;;;;5011099;28;20057;-63
2021/05/30 12:26:18;;;;;;;6.53;4.40;;;28.70;42.20;;;;;;5010948;28;20105;-62
2021/05/30 12:28:45;;;;;;;7.10;4.97;;;28.60;42.80;;;;;;5012610;28;20034;-62
2021/05/30 12:31:14;;;;;;;6.38;5.20;;;28.70;40.90;;;;;;5015265;28;20041;-62
2021/05/30 12:33:53;;;;;;;6.88;5.05;;;28.70;41.00;;;;;;5030509;28;20149;-64
2021/05/30 12:36:54;;;;;;;6.05;4.60;;;28.10;40.80;;;;;;5015374;28;20059;-62